Time;durP1;ratioP1;P1;durP2;ratioP2;P2;SDS_P1;SDS_P2;PMS_P1;PMS_P2;Temp;Humidity;BMP_temperature;BMP_pressure;BME280_temperature;BME280_humidity;BME280_pressure;Samples;Min_cycle;Max_cycle;Signal;HPM_P1;HPM_P2
2022/02/19 00:02:16;;;;;;;110.82;48.97;;;9.50;99.90;;;;;;4931726;29;20028;-82
2022/02/19 00:12:43;;;;;;;109.28;53.90;;;9.50;99.90;;;;;;4893664;29;20512;-82
2022/02/19 00:15:15;;;;;;;107.95;53.15;;;9.50;99.90;;;;;;4892097;29;20043;-82
2022/02/19 00:18:47;;;;;;;;;;;;;;;;;;;;;
2022/02/19 00:29:26;;;;;;;;;;;;;;;;;;;;;
2022/02/19 00:45:28;;;;;;;99.80;54.65;;;9.50;99.90;;;;;;4880691;29;20096;-82
2022/02/19 00:48:11;;;;;;;96.95;55.17;;;9.40;99.90;;;;;;4913749;28;20058;-82
2022/02/19 00:51:43;;;;;;;99.13;57.15;;;9.40;99.90;;;;;;5020452;28;20040;-81
2022/02/19 01:01:05;;;;;;;106.60;55.03;;;9.30;99.90;;;;;;4984268;28;20105;-82
2022/02/19 01:07:27;;;;;;;;;;;;;;;;;;;;;
2022/02/19 01:14:18;;;;;;;;;;;;;;;;;;;;;
2022/02/19 01:27:54;;;;;;;102.00;56.70;;;9.10;99.90;;;;;;4948181;28;20549;-82
2022/02/19 01:31:29;;;;;;;;;;;;;;;;;;;;;
2022/02/19 01:45:28;;;;;;;123.15;63.83;;;9.00;99.90;;;;;;4978614;28;20723;-82
2022/02/19 01:48:07;;;;;;;132.13;65.50;;;9.00;99.90;;;;;;4910883;29;20491;-81
2022/02/19 01:51:02;;;;;;;126.28;61.55;;;9.00;99.90;;;;;;4842065;29;20068;-81
2022/02/19 02:32:11;;;;;;;161.80;67.53;;;9.00;99.90;;;;;;4803954;29;20049;-82
2022/02/19 03:00:01;;;;;;;135.75;62.15;;;9.10;99.90;;;;;;5025728;28;20047;-83
2022/02/19 04:37:36;;;;;;;56.10;34.83;;;9.70;99.90;;;;;;4834135;29;20037;-83
2022/02/19 04:40:36;;;;;;;54.00;34.75;;;9.70;99.90;;;;;;4808019;29;20044;-83
2022/02/19 04:58:13;;;;;;;69.20;43.15;;;9.90;99.90;;;;;;4934706;28;20039;-82
2022/02/19 05:04:07;;;;;;;78.18;45.17;;;9.90;99.90;;;;;;4897607;29;20036;-83
2022/02/19 05:18:05;;;;;;;77.97;44.63;;;10.00;99.90;;;;;;4893470;29;20046;-83
2022/02/19 05:24:21;;;;;;;72.30;46.05;;;9.90;99.90;;;;;;4837393;29;20045;-83
2022/02/19 05:26:47;;;;;;;73.97;44.03;;;9.90;99.90;;;;;;4835159;29;20096;-82
2022/02/19 05:29:58;;;;;;;69.07;43.53;;;10.00;99.90;;;;;;4923952;28;20041;-84
2022/02/19 05:32:41;;;;;;;68.70;43.85;;;10.00;99.90;;;;;;4978843;28;20039;-83
2022/02/19 05:35:09;;;;;;;;;;;10.00;99.90;;;;;;4967298;28;20065;-83
2022/02/19 05:37:46;;;;;;;73.95;43.63;;;9.90;99.90;;;;;;4979535;28;19960;-83
2022/02/19 05:40:20;;;;;;;70.40;43.88;;;9.80;99.90;;;;;;4959553;28;20064;-83
2022/02/19 05:42:47;;;;;;;70.35;43.22;;;9.80;99.90;;;;;;4976781;28;20470;-83
2022/02/19 05:45:37;;;;;;;73.40;44.08;;;9.80;99.90;;;;;;5021276;28;20473;-83
2022/02/19 05:51:28;;;;;;;;;;;;;;;;;;;;;
2022/02/19 05:53:57;;;;;;;78.38;48.90;;;9.80;99.90;;;;;;4949524;28;20023;-82
2022/02/19 05:56:34;;;;;;;71.25;44.92;;;9.80;99.90;;;;;;4990432;28;20026;-83
2022/02/19 06:09:01;;;;;;;80.25;47.92;;;9.90;99.90;;;;;;5022020;28;20032;-82
2022/02/19 06:11:40;;;;;;;82.93;50.72;;;9.80;99.90;;;;;;5022688;28;20087;-84
2022/02/19 06:14:42;;;;;;;78.90;47.95;;;9.80;99.90;;;;;;5020194;28;20149;-83
2022/02/19 06:17:28;;;;;;;78.18;47.63;;;9.90;99.90;;;;;;5005153;28;20037;-83
2022/02/19 06:27:07;;;;;;;106.45;52.15;;;10.00;99.90;;;;;;5020326;28;20400;-83
2022/02/19 06:29:42;;;;;;;124.15;56.17;;;9.80;99.90;;;;;;5023280;28;20033;-83
2022/02/19 06:45:16;;;;;;;133.47;57.17;;;9.30;99.90;;;;;;5005923;28;20042;-83
2022/02/19 06:48:09;;;;;;;110.22;51.00;;;9.30;99.90;;;;;;5041090;28;20129;-83
2022/02/19 06:51:12;;;;;;;104.07;49.13;;;9.30;99.90;;;;;;5018092;28;20391;-83
2022/02/19 06:53:38;;;;;;;98.63;48.17;;;9.30;99.90;;;;;;5040887;28;20502;-82
2022/02/19 06:56:07;;;;;;;83.00;45.38;;;9.30;99.90;;;;;;5044161;28;20029;-83
2022/02/19 06:58:33;;;;;;;89.68;47.17;;;9.30;99.90;;;;;;5044397;28;20062;-83
2022/02/19 07:01:11;;;;;;;86.28;46.63;;;9.30;99.90;;;;;;5044929;28;20053;-83
2022/02/19 07:03:42;;;;;;;83.55;47.15;;;9.30;99.90;;;;;;5042542;28;20028;-82
2022/02/19 07:06:11;;;;;;;88.68;48.70;;;9.30;99.90;;;;;;5026103;28;20036;-82
2022/02/19 07:08:45;;;;;;;83.78;46.97;;;9.30;99.90;;;;;;5044459;28;20057;-83
2022/02/19 07:11:11;;;;;;;87.05;47.33;;;9.30;99.90;;;;;;5042031;28;20550;-83
2022/02/19 07:14:03;;;;;;;81.72;47.92;;;9.30;99.90;;;;;;5044466;28;20112;-83
2022/02/19 07:16:32;;;;;;;86.50;49.70;;;9.30;99.90;;;;;;5020532;28;20075;-83
2022/02/19 07:19:06;;;;;;;93.38;49.30;;;9.30;99.90;;;;;;5043759;28;20048;-83
2022/02/19 07:21:32;;;;;;;89.68;50.45;;;9.30;99.90;;;;;;5044310;28;20083;-82
2022/02/19 07:23:58;;;;;;;85.78;49.45;;;9.40;99.90;;;;;;5025494;28;20017;-83
2022/02/19 07:26:24;;;;;;;89.80;49.35;;;9.40;99.90;;;;;;5039548;28;20057;-82
2022/02/19 07:29:07;;;;;;;86.75;48.85;;;9.40;99.90;;;;;;5052051;28;20025;-84
2022/02/19 07:31:45;;;;;;;90.05;50.42;;;9.40;99.90;;;;;;5023909;28;20029;-83
2022/02/19 07:34:13;;;;;;;83.53;49.08;;;9.40;99.90;;;;;;5041160;28;20029;-82
2022/02/19 07:36:39;;;;;;;91.63;50.78;;;9.40;99.90;;;;;;5044125;28;20483;-82
2022/02/19 07:39:11;;;;;;;83.55;48.38;;;9.50;99.90;;;;;;5043993;28;20033;-82
2022/02/19 07:41:38;;;;;;;81.75;47.45;;;9.50;99.90;;;;;;5040985;28;20087;-83
2022/02/19 07:44:08;;;;;;;74.00;45.20;;;9.60;99.90;;;;;;5023345;28;20049;-82
2022/02/19 07:46:37;;;;;;;75.03;44.33;;;9.60;99.90;;;;;;5006440;28;20033;-82
2022/02/19 08:00:25;;;;;;;51.28;33.30;;;9.90;99.90;;;;;;5023051;28;20503;-83
2022/02/19 08:02:56;;;;;;;53.03;35.67;;;10.00;99.90;;;;;;5020409;28;20029;-83
2022/02/19 08:05:29;;;;;;;48.25;32.47;;;10.10;99.90;;;;;;4997377;28;20269;-84
2022/02/19 08:08:01;;;;;;;45.22;32.42;;;10.10;99.90;;;;;;5022662;28;20213;-82
2022/02/19 08:10:27;;;;;;;45.25;31.67;;;10.20;99.90;;;;;;5018499;28;20024;-81
2022/02/19 08:12:53;;;;;;;46.75;32.80;;;10.30;99.90;;;;;;5021156;28;20034;-81
2022/02/19 08:15:19;;;;;;;48.22;31.80;;;10.30;99.90;;;;;;5026157;28;20025;-81
2022/02/19 08:17:45;;;;;;;46.95;32.22;;;10.20;99.90;;;;;;5023980;28;20029;-85
2022/02/19 08:20:14;;;;;;;41.67;30.15;;;10.30;99.90;;;;;;5000282;28;20035;-81
2022/02/19 08:22:40;;;;;;;42.55;29.85;;;10.50;99.90;;;;;;5005987;28;20514;-82
2022/02/19 08:25:14;;;;;;;41.83;32.03;;;10.60;99.90;;;;;;4999806;28;20063;-82
2022/02/19 08:28:10;;;;;;;;;;;;;;;;;;;;;
2022/02/19 08:31:17;;;;;;;44.50;33.08;;;10.70;99.90;;;;;;5025342;28;20813;-84
2022/02/19 08:33:47;;;;;;;47.83;32.63;;;10.70;99.90;;;;;;4981346;28;20050;-82
2022/02/19 08:36:13;;;;;;;46.95;32.78;;;10.70;99.90;;;;;;5025369;28;20025;-83
2022/02/19 08:38:42;;;;;;;53.72;34.97;;;10.70;99.90;;;;;;5014518;28;20021;-81
2022/02/19 08:41:37;;;;;;;48.47;32.78;;;10.80;99.90;;;;;;5020961;28;20026;-84
2022/02/19 08:44:03;;;;;;;46.60;32.42;;;10.80;99.90;;;;;;5029372;28;20907;-82
2022/02/19 08:46:29;;;;;;;51.13;36.33;;;10.90;99.90;;;;;;5023670;28;20030;-84
2022/02/19 08:48:58;;;;;;;50.63;37.80;;;10.80;99.90;;;;;;5041418;28;20112;-84
2022/02/19 08:51:24;;;;;;;51.83;37.58;;;10.80;99.90;;;;;;5041548;28;20464;-84
2022/02/19 08:53:52;;;;;;;50.22;35.47;;;10.80;99.90;;;;;;5042363;28;20083;-83
2022/02/19 08:56:18;;;;;;;50.90;36.25;;;10.80;99.90;;;;;;5040701;28;20087;-84
2022/02/19 08:58:45;;;;;;;51.70;36.13;;;10.80;99.90;;;;;;5021699;28;20025;-84
2022/02/19 09:01:14;;;;;;;48.78;35.20;;;10.80;99.90;;;;;;5040004;28;20021;-84
2022/02/19 09:03:39;;;;;;;46.42;35.60;;;10.80;99.90;;;;;;5040355;28;20132;-84
2022/02/19 09:06:05;;;;;;;53.00;35.20;;;10.80;99.90;;;;;;5038275;28;20100;-84
2022/02/19 09:08:31;;;;;;;51.05;35.50;;;10.80;99.90;;;;;;5039966;28;20029;-81
2022/02/19 09:11:11;;;;;;;48.85;33.63;;;10.80;99.90;;;;;;5042420;28;20025;-84
2022/02/19 09:13:37;;;;;;;47.42;34.65;;;10.80;99.90;;;;;;5033538;28;20287;-84
2022/02/19 09:16:15;;;;;;;46.95;34.40;;;10.80;99.90;;;;;;5041833;28;20017;-84
2022/02/19 09:18:44;;;;;;;56.30;34.08;;;10.80;99.90;;;;;;5042219;28;20086;-85
2022/02/19 09:21:13;;;;;;;46.25;34.17;;;10.90;99.90;;;;;;5042185;28;20108;-84
2022/02/19 09:23:39;;;;;;;49.42;33.92;;;11.00;99.90;;;;;;5024603;28;20025;-84
2022/02/19 09:26:05;;;;;;;49.42;34.45;;;11.00;99.90;;;;;;5038993;28;20384;-85
2022/02/19 09:28:33;;;;;;;43.65;33.05;;;11.10;99.90;;;;;;5040592;28;20032;-84
2022/02/19 09:30:59;;;;;;;51.50;34.55;;;11.20;99.90;;;;;;5041208;28;20046;-85
2022/02/19 09:33:31;;;;;;;52.15;35.95;;;11.20;99.90;;;;;;5040637;28;20043;-85
2022/02/19 09:36:00;;;;;;;48.03;34.53;;;11.10;99.90;;;;;;5039246;28;20075;-85
2022/02/19 09:38:26;;;;;;;53.65;35.22;;;11.10;99.90;;;;;;5025593;28;20069;-84
2022/02/19 09:40:54;;;;;;;52.22;35.67;;;11.00;99.90;;;;;;5040503;28;20036;-85
2022/02/19 09:43:20;;;;;;;49.05;33.80;;;11.00;99.90;;;;;;5010140;28;20045;-84
2022/02/19 09:45:47;;;;;;;45.85;33.53;;;11.10;99.90;;;;;;5026849;28;21598;-85
2022/02/19 09:48:16;;;;;;;44.22;31.48;;;11.20;99.90;;;;;;5003051;28;20026;-85
2022/02/19 09:50:44;;;;;;;44.33;32.42;;;11.20;99.90;;;;;;5001505;28;20022;-85
2022/02/19 09:53:11;;;;;;;43.53;31.17;;;11.30;99.90;;;;;;5021615;28;20034;-85
2022/02/19 09:55:37;;;;;;;42.88;32.38;;;11.40;99.90;;;;;;5013219;28;20027;-85
2022/02/19 09:58:06;;;;;;;44.75;32.50;;;11.40;99.90;;;;;;5012993;28;20495;-84
2022/02/19 10:00:37;;;;;;;43.63;31.63;;;11.50;99.90;;;;;;5022921;28;20189;-84
2022/02/19 10:03:23;;;;;;;51.63;32.60;;;11.50;99.90;;;;;;5021614;28;20022;-84
2022/02/19 10:05:50;;;;;;;51.83;33.35;;;11.60;99.90;;;;;;5015964;28;20036;-84
2022/02/19 10:08:16;;;;;;;47.35;33.28;;;11.60;99.90;;;;;;5020798;28;20025;-85
2022/02/19 10:10:53;;;;;;;47.10;33.38;;;11.70;99.90;;;;;;5022179;28;20017;-84
2022/02/19 10:13:37;;;;;;;47.05;32.53;;;11.70;99.90;;;;;;5028548;28;20037;-84
2022/02/19 10:16:09;;;;;;;48.67;33.28;;;11.60;99.90;;;;;;5019721;28;20052;-84
2022/02/19 10:18:39;;;;;;;48.75;32.35;;;11.70;99.90;;;;;;5032653;28;20029;-84
2022/02/19 10:21:34;;;;;;;42.40;30.70;;;11.70;99.90;;;;;;5023305;28;20451;-84
2022/02/19 10:23:59;;;;;;;41.25;30.25;;;11.70;99.90;;;;;;5012794;28;20668;-84
2022/02/19 10:26:30;;;;;;;39.25;27.65;;;11.70;99.90;;;;;;5026489;28;20026;-84
2022/02/19 10:29:15;;;;;;;39.50;28.25;;;11.80;99.90;;;;;;5024361;28;20041;-83
2022/02/19 10:31:41;;;;;;;43.42;29.25;;;11.70;99.90;;;;;;5027949;28;20049;-84
2022/02/19 10:34:09;;;;;;;38.95;28.92;;;11.70;99.90;;;;;;5021246;28;20025;-85
2022/02/19 10:36:50;;;;;;;38.78;29.48;;;11.70;99.90;;;;;;5025503;28;20083;-84
2022/02/19 10:39:36;;;;;;;42.40;31.90;;;11.60;99.90;;;;;;5009311;28;20060;-84
2022/02/19 10:42:05;;;;;;;49.92;35.47;;;11.40;99.90;;;;;;5031387;28;20060;-83
2022/02/19 10:44:33;;;;;;;50.13;34.47;;;11.30;99.90;;;;;;5046054;28;20466;-84
2022/02/19 10:47:19;;;;;;;40.20;30.90;;;11.30;99.90;;;;;;5045391;28;20025;-83
2022/02/19 10:50:05;;;;;;;43.60;31.50;;;11.40;99.90;;;;;;5023011;28;20029;-84
2022/02/19 10:52:35;;;;;;;50.42;32.00;;;11.60;99.90;;;;;;5024551;28;20492;-84
2022/02/19 10:55:17;;;;;;;46.88;34.00;;;11.60;99.90;;;;;;5037936;28;20439;-85
2022/02/19 10:57:56;;;;;;;49.05;35.03;;;11.50;99.90;;;;;;5028405;28;20037;-84
2022/02/19 11:00:24;;;;;;;58.00;39.88;;;11.40;99.90;;;;;;5039934;28;20025;-84
2022/02/19 11:02:53;;;;;;;58.38;40.95;;;11.20;99.90;;;;;;5029823;28;20174;-85
2022/02/19 11:05:20;;;;;;;51.35;37.72;;;11.10;99.90;;;;;;5047679;28;20025;-85
2022/02/19 11:07:48;;;;;;;58.53;38.40;;;11.20;99.90;;;;;;5043652;28;20492;-84
2022/02/19 11:10:21;;;;;;;51.08;34.75;;;11.40;99.90;;;;;;5027189;28;20622;-84
2022/02/19 11:12:47;;;;;;;;;;;11.50;99.90;;;;;;5041789;28;20405;-84
2022/02/19 11:15:18;;;;;;;56.83;38.25;;;11.60;99.90;;;;;;5047966;28;19909;-84
2022/02/19 11:17:48;;;;;;;55.27;38.90;;;11.50;99.90;;;;;;5042080;28;20048;-84
2022/02/19 11:20:15;;;;;;;50.15;36.70;;;11.40;99.90;;;;;;5027928;28;20033;-84
2022/02/19 11:22:47;;;;;;;51.03;37.97;;;11.40;99.90;;;;;;5031441;28;20514;-84
2022/02/19 11:25:19;;;;;;;;;;;11.50;99.90;;;;;;5038235;28;20472;-85
2022/02/19 11:28:05;;;;;;;48.50;35.20;;;11.60;99.90;;;;;;5042073;28;19909;-85
2022/02/19 11:30:48;;;;;;;48.47;34.75;;;11.70;99.90;;;;;;5047060;28;20116;-85
2022/02/19 11:33:17;;;;;;;49.25;33.60;;;11.80;99.90;;;;;;5048492;28;20033;-84
2022/02/19 11:35:43;;;;;;;47.53;34.90;;;11.90;99.90;;;;;;5025314;28;20116;-84
2022/02/19 11:38:46;;;;;;;50.38;34.35;;;12.00;99.90;;;;;;5045094;28;20037;-85
2022/02/19 11:41:15;;;;;;;;;;;12.10;99.90;;;;;;5042767;28;20025;-85
2022/02/19 11:43:41;;;;;;;46.97;34.08;;;12.20;99.90;;;;;;5044285;28;20018;-84
2022/02/19 11:46:16;;;;;;;54.45;36.42;;;12.30;99.90;;;;;;5043211;28;20104;-84
2022/02/19 11:48:48;;;;;;;53.28;38.47;;;12.30;99.90;;;;;;5043832;28;20021;-84
2022/02/19 11:51:27;;;;;;;58.10;37.67;;;12.40;99.90;;;;;;5042197;28;20065;-85
2022/02/19 11:54:02;;;;;;;52.28;37.38;;;12.30;99.90;;;;;;5024708;28;20033;-84
2022/02/19 11:56:35;;;;;;;53.25;36.92;;;12.30;99.90;;;;;;5038743;28;20021;-84
2022/02/19 11:59:02;;;;;;;51.40;36.53;;;12.30;99.90;;;;;;5025215;28;20032;-85
2022/02/19 12:01:29;;;;;;;46.38;34.50;;;12.30;99.90;;;;;;5045695;28;20078;-85
2022/02/19 12:04:10;;;;;;;50.30;34.65;;;12.50;99.90;;;;;;5040264;28;20026;-84
2022/02/19 12:06:38;;;;;;;44.60;33.50;;;12.50;99.90;;;;;;5039984;28;20400;-84
2022/02/19 12:09:31;;;;;;;43.85;32.58;;;12.60;99.90;;;;;;5041198;28;20032;-85
2022/02/19 12:11:59;;;;;;;;;;;12.60;99.90;;;;;;5042931;28;20037;-85
2022/02/19 12:14:46;;;;;;;38.88;29.45;;;12.60;99.90;;;;;;5044328;28;19995;-85
2022/02/19 12:17:16;;;;;;;40.13;31.13;;;12.60;99.90;;;;;;5045941;28;20107;-84
2022/02/19 12:19:59;;;;;;;44.17;31.88;;;12.60;99.90;;;;;;5039836;28;20068;-84
2022/02/19 12:22:31;;;;;;;;;;;12.60;99.90;;;;;;5046534;28;20020;-85
2022/02/19 12:24:58;;;;;;;46.97;36.45;;;12.70;99.90;;;;;;5020053;28;19909;-84
2022/02/19 12:27:25;;;;;;;41.95;32.17;;;12.70;99.90;;;;;;5038678;28;20030;-83
2022/02/19 12:29:53;;;;;;;47.08;31.13;;;12.70;99.90;;;;;;5036775;28;20475;-85
2022/02/19 12:32:22;;;;;;;39.85;29.90;;;12.70;99.90;;;;;;5040031;28;20033;-84
2022/02/19 12:34:58;;;;;;;39.17;30.52;;;12.70;99.90;;;;;;5042552;28;20032;-84
2022/02/19 12:37:33;;;;;;;42.80;30.35;;;12.70;99.90;;;;;;5044883;28;20057;-84
2022/02/19 12:40:01;;;;;;;36.47;29.05;;;12.60;99.90;;;;;;5023065;28;20044;-84
2022/02/19 12:42:29;;;;;;;42.05;32.47;;;12.60;99.90;;;;;;5040869;28;20076;-85
2022/02/19 12:44:59;;;;;;;41.30;31.92;;;12.60;99.90;;;;;;5046484;28;20024;-84
2022/02/19 12:47:30;;;;;;;44.25;31.08;;;12.50;99.90;;;;;;5040713;28;20084;-85
2022/02/19 12:49:56;;;;;;;40.35;27.52;;;12.60;99.90;;;;;;5038433;28;20057;-84
2022/02/19 12:52:26;;;;;;;37.85;27.58;;;12.70;99.90;;;;;;5037735;28;20519;-84
2022/02/19 12:54:55;;;;;;;40.90;29.42;;;12.70;99.90;;;;;;5044405;28;20030;-84
2022/02/19 12:57:27;;;;;;;39.03;28.08;;;12.70;99.90;;;;;;5042090;28;20025;-84
2022/02/19 13:00:01;;;;;;;36.03;28.92;;;12.60;99.90;;;;;;5026251;28;20056;-84
2022/02/19 13:02:26;;;;;;;37.63;29.70;;;12.60;99.90;;;;;;5044001;28;20032;-84
2022/02/19 13:05:02;;;;;;;42.10;30.35;;;12.60;99.90;;;;;;5035454;28;20393;-84
2022/02/19 13:07:29;;;;;;;48.83;31.20;;;12.50;99.90;;;;;;5021504;28;20034;-84
2022/02/19 13:10:00;;;;;;;44.20;33.03;;;12.50;99.90;;;;;;5043994;28;20484;-84
2022/02/19 13:12:28;;;;;;;45.60;34.50;;;12.30;99.90;;;;;;5041289;28;20041;-85
2022/02/19 13:14:55;;;;;;;46.45;35.65;;;12.10;99.90;;;;;;5027448;28;20053;-84
2022/02/19 13:17:25;;;;;;;55.45;38.50;;;12.00;99.90;;;;;;5026162;28;20021;-84
2022/02/19 13:20:03;;;;;;;57.25;37.70;;;11.80;99.90;;;;;;5037520;28;20033;-83
2022/02/19 13:22:29;;;;;;;59.47;41.33;;;11.70;99.90;;;;;;5041137;28;20025;-84
2022/02/19 13:25:02;;;;;;;69.13;45.55;;;11.60;99.90;;;;;;5034730;28;20116;-84
2022/02/19 13:27:28;;;;;;;68.18;44.53;;;11.60;99.90;;;;;;5040137;28;20032;-85
2022/02/19 13:30:00;;;;;;;71.93;47.15;;;11.60;99.90;;;;;;5044773;28;20037;-84
2022/02/19 13:32:42;;;;;;;74.07;48.65;;;11.50;99.90;;;;;;5040666;28;20073;-84
2022/02/19 13:35:21;;;;;;;79.47;50.72;;;11.50;99.90;;;;;;5036123;28;20029;-84
2022/02/19 13:37:50;;;;;;;80.22;52.42;;;11.50;99.90;;;;;;5039846;28;20030;-83
2022/02/19 13:40:38;;;;;;;91.28;56.17;;;11.40;99.90;;;;;;5044707;28;20093;-84
2022/02/19 13:43:13;;;;;;;93.35;56.17;;;11.40;99.90;;;;;;5018385;28;20111;-84
2022/02/19 13:45:44;;;;;;;89.50;57.50;;;11.30;99.90;;;;;;5045717;28;20120;-84
2022/02/19 13:48:13;;;;;;;99.13;58.92;;;11.20;99.90;;;;;;5040788;28;20545;-84
2022/02/19 13:50:50;;;;;;;97.35;59.55;;;11.20;99.90;;;;;;5050050;28;20495;-83
2022/02/19 13:53:25;;;;;;;97.55;60.47;;;11.00;99.90;;;;;;5044521;28;20091;-83
2022/02/19 13:56:03;;;;;;;92.10;56.22;;;11.00;99.90;;;;;;5039072;28;20013;-84
2022/02/19 13:58:44;;;;;;;98.53;59.60;;;11.00;99.90;;;;;;5046403;28;20052;-84
2022/02/19 14:01:11;;;;;;;102.72;64.05;;;11.00;99.90;;;;;;5026048;28;20599;-83
2022/02/19 14:03:47;;;;;;;97.05;63.30;;;11.00;99.90;;;;;;5028152;28;20056;-83
2022/02/19 14:06:36;;;;;;;89.53;56.63;;;11.00;99.90;;;;;;5046625;28;20036;-84
2022/02/19 14:09:24;;;;;;;83.05;52.92;;;11.10;99.90;;;;;;5027542;28;20032;-83
2022/02/19 14:12:02;;;;;;;91.90;53.30;;;11.10;99.90;;;;;;5044153;28;20032;-83
2022/02/19 14:14:30;;;;;;;79.30;51.70;;;11.20;99.90;;;;;;5041904;28;20125;-84
2022/02/19 14:17:14;;;;;;;85.95;51.30;;;11.10;99.90;;;;;;5043379;28;20116;-84
2022/02/19 14:19:54;;;;;;;81.10;51.33;;;11.00;99.90;;;;;;5045616;28;20030;-84
2022/02/19 14:22:23;;;;;;;85.95;51.33;;;10.90;99.90;;;;;;5040641;28;20025;-83
2022/02/19 14:25:03;;;;;;;91.03;51.35;;;10.90;99.90;;;;;;5019523;28;20030;-83
2022/02/19 14:27:41;;;;;;;80.10;48.90;;;10.80;99.90;;;;;;5043482;28;20025;-84
2022/02/19 14:30:08;;;;;;;84.40;50.15;;;10.80;99.90;;;;;;5040146;28;20182;-83
2022/02/19 14:32:34;;;;;;;81.68;49.50;;;10.80;99.90;;;;;;5022752;28;20041;-84
2022/02/19 14:35:00;;;;;;;74.00;46.97;;;10.80;99.90;;;;;;5038922;28;20039;-84
2022/02/19 14:37:34;;;;;;;68.55;44.00;;;10.70;99.90;;;;;;5047044;28;20547;-82
2022/02/19 14:40:06;;;;;;;74.25;45.40;;;10.80;99.90;;;;;;5038322;28;20448;-84
2022/02/19 14:42:32;;;;;;;69.72;42.90;;;10.90;99.90;;;;;;5047499;28;20468;-84
2022/02/19 14:45:01;;;;;;;79.72;52.50;;;10.90;99.90;;;;;;5037894;28;20041;-84
2022/02/19 14:47:27;;;;;;;80.25;53.83;;;11.00;99.90;;;;;;5038586;28;20029;-83
2022/02/19 14:49:52;;;;;;;77.65;49.45;;;11.00;99.90;;;;;;5045472;28;20026;-84
2022/02/19 14:52:18;;;;;;;78.28;49.45;;;10.90;99.90;;;;;;5045652;28;20041;-83
2022/02/19 14:54:44;;;;;;;68.78;49.45;;;11.00;99.90;;;;;;5040348;28;20061;-84
2022/02/19 14:57:10;;;;;;;83.57;53.45;;;10.90;99.90;;;;;;5039493;28;20498;-83
2022/02/19 14:59:36;;;;;;;87.80;54.80;;;11.00;99.90;;;;;;5029322;28;20025;-83
2022/02/19 15:02:02;;;;;;;90.38;67.93;;;11.00;99.90;;;;;;5024557;28;20030;-83
2022/02/19 15:04:28;;;;;;;91.97;67.20;;;11.10;99.90;;;;;;5028475;28;20036;-84
2022/02/19 15:06:55;;;;;;;107.45;72.93;;;11.30;99.90;;;;;;5039035;28;20079;-83
2022/02/19 15:09:23;;;;;;;94.88;67.60;;;11.50;99.90;;;;;;5028041;28;20032;-84
2022/02/19 15:12:08;;;;;;;84.78;62.53;;;11.60;99.90;;;;;;5028659;28;20071;-83
2022/02/19 15:14:35;;;;;;;58.17;43.17;;;11.70;99.90;;;;;;5020876;28;20064;-83
2022/02/19 15:17:02;;;;;;;47.28;35.03;;;11.80;99.90;;;;;;5045032;28;20526;-84
2022/02/19 15:19:34;;;;;;;55.08;35.85;;;11.90;99.90;;;;;;5054225;28;20032;-84
2022/02/19 15:22:05;;;;;;;45.60;31.45;;;11.90;99.90;;;;;;5027988;28;20645;-83
2022/02/19 15:24:31;;;;;;;38.08;29.20;;;11.80;99.90;;;;;;5039268;28;20029;-83
2022/02/19 15:27:06;;;;;;;38.78;27.05;;;11.90;99.90;;;;;;5043923;28;20433;-82
2022/02/19 15:29:36;;;;;;;38.05;29.52;;;11.90;99.90;;;;;;5034573;28;20051;-83
2022/02/19 15:32:05;;;;;;;44.08;31.50;;;11.80;99.90;;;;;;5028666;28;20369;-84
2022/02/19 15:34:34;;;;;;;44.83;32.50;;;11.80;99.90;;;;;;5019078;28;20068;-84
2022/02/19 15:37:00;;;;;;;48.10;34.10;;;11.80;99.90;;;;;;5041277;28;20400;-84
2022/02/19 15:39:26;;;;;;;53.03;34.53;;;11.80;99.90;;;;;;5033755;28;20025;-83
2022/02/19 15:41:55;;;;;;;74.60;51.92;;;11.80;99.90;;;;;;5041423;28;20186;-84
2022/02/19 15:44:23;;;;;;;59.58;43.17;;;11.80;99.90;;;;;;5023592;28;20273;-84
2022/02/19 15:46:51;;;;;;;61.10;45.00;;;11.80;99.90;;;;;;5028074;28;20025;-84
2022/02/19 15:49:18;;;;;;;70.28;47.58;;;11.80;99.90;;;;;;5023497;28;20178;-84
2022/02/19 15:51:46;;;;;;;61.97;46.75;;;11.80;99.90;;;;;;5007224;28;20049;-86
2022/02/19 15:54:12;;;;;;;65.93;46.50;;;11.80;99.90;;;;;;5007640;28;20030;-83
2022/02/19 15:56:38;;;;;;;69.13;49.30;;;11.80;99.90;;;;;;5024985;28;20021;-83
2022/02/19 15:59:07;;;;;;;68.60;47.75;;;11.70;99.90;;;;;;5023032;28;20514;-82
2022/02/19 16:01:34;;;;;;;66.07;44.75;;;11.70;99.90;;;;;;5025541;28;20029;-83
2022/02/19 16:04:06;;;;;;;68.28;49.28;;;11.70;99.90;;;;;;5021111;28;20096;-81
2022/02/19 16:06:35;;;;;;;63.90;43.83;;;11.70;99.90;;;;;;5018999;28;20452;-82
2022/02/19 16:09:06;;;;;;;73.15;47.10;;;11.60;99.90;;;;;;5020643;28;20034;-83
2022/02/19 16:11:34;;;;;;;76.70;51.07;;;11.60;99.90;;;;;;5021248;28;20130;-83
2022/02/19 16:14:00;;;;;;;74.70;47.88;;;11.50;99.90;;;;;;5021790;28;20273;-82
2022/02/19 16:16:26;;;;;;;85.13;54.28;;;11.30;99.90;;;;;;5022088;28;20109;-82
2022/02/19 16:18:52;;;;;;;99.72;59.22;;;11.10;99.90;;;;;;5018820;28;20100;-83
2022/02/19 16:21:18;;;;;;;94.43;63.85;;;11.10;99.90;;;;;;5024092;28;20040;-83
2022/02/19 16:23:44;;;;;;;77.90;51.30;;;11.10;99.90;;;;;;5022826;28;20029;-82
2022/02/19 16:26:12;;;;;;;75.15;49.85;;;11.10;99.90;;;;;;5023530;28;20487;-82
2022/02/19 16:28:41;;;;;;;69.43;48.72;;;11.20;99.90;;;;;;5023253;28;20017;-83
2022/02/19 16:31:11;;;;;;;67.07;45.72;;;11.30;99.90;;;;;;5022701;28;20026;-83
2022/02/19 16:33:41;;;;;;;64.63;43.97;;;11.30;99.90;;;;;;5022682;28;20036;-83
2022/02/19 16:36:09;;;;;;;63.65;45.42;;;11.40;99.90;;;;;;5023111;28;20581;-82
2022/02/19 16:38:37;;;;;;;70.55;46.22;;;11.40;99.90;;;;;;5022961;28;20480;-84
2022/02/19 16:41:09;;;;;;;74.70;50.28;;;11.40;99.90;;;;;;5022907;28;20065;-85
2022/02/19 16:43:35;;;;;;;81.25;52.03;;;11.40;99.90;;;;;;5032338;28;20415;-78
2022/02/19 16:46:04;;;;;;;84.53;53.03;;;11.30;99.90;;;;;;5042334;28;20029;-82
2022/02/19 16:48:32;;;;;;;92.55;59.78;;;11.20;99.90;;;;;;5040576;28;20053;-83
2022/02/19 16:50:59;;;;;;;88.18;57.10;;;11.10;99.90;;;;;;5038734;28;20024;-84
2022/02/19 16:53:24;;;;;;;85.50;53.67;;;11.10;99.90;;;;;;5040481;28;20029;-83
2022/02/19 16:55:50;;;;;;;81.03;53.17;;;11.10;99.90;;;;;;5039058;28;20444;-84
2022/02/19 16:58:16;;;;;;;105.70;61.80;;;11.20;99.90;;;;;;5041908;28;20115;-83
2022/02/19 17:00:42;;;;;;;115.05;72.80;;;11.10;99.90;;;;;;5048828;28;20037;-86
2022/02/19 17:03:08;;;;;;;103.43;64.85;;;11.10;99.90;;;;;;5042241;28;20460;-84
2022/02/19 17:05:34;;;;;;;99.35;62.58;;;11.10;99.90;;;;;;5040574;28;20033;-86
2022/02/19 17:08:00;;;;;;;111.72;66.53;;;11.10;99.90;;;;;;5048646;28;20025;-91
2022/02/19 17:10:27;;;;;;;85.97;59.22;;;11.00;99.90;;;;;;5050525;28;20204;-88
2022/02/19 17:12:57;;;;;;;94.30;61.97;;;11.00;99.90;;;;;;5054758;28;20097;-91
2022/02/19 17:15:23;;;;;;;143.13;94.50;;;11.00;99.90;;;;;;5047795;28;20029;-88
2022/02/19 17:17:49;;;;;;;114.93;83.38;;;11.00;99.90;;;;;;5043806;28;20120;-88
2022/02/19 17:20:16;;;;;;;77.70;52.80;;;11.00;99.90;;;;;;5046530;28;20048;-87
2022/02/19 17:22:43;;;;;;;75.57;52.80;;;10.90;99.90;;;;;;5049050;28;20116;-84
2022/02/19 17:25:13;;;;;;;81.95;52.80;;;10.80;99.90;;;;;;5037474;28;20048;-85
2022/02/19 17:27:40;;;;;;;81.30;52.42;;;10.70;99.90;;;;;;5042789;28;20396;-86
2022/02/19 17:30:08;;;;;;;78.22;51.15;;;10.70;99.90;;;;;;5036196;28;20037;-86
2022/02/19 17:32:35;;;;;;;76.57;51.08;;;10.60;99.90;;;;;;5044385;28;20033;-87
2022/02/19 17:35:00;;;;;;;89.93;57.50;;;10.50;99.90;;;;;;5048893;28;20029;-87
2022/02/19 17:37:27;;;;;;;83.18;54.72;;;10.50;99.90;;;;;;5046571;28;20044;-89
2022/02/19 17:40:02;;;;;;;78.22;52.80;;;10.50;99.90;;;;;;5035783;28;20030;-83
2022/02/19 17:42:27;;;;;;;76.80;48.35;;;10.40;99.90;;;;;;5038850;28;20032;-83
2022/02/19 17:44:56;;;;;;;79.82;53.78;;;10.40;99.90;;;;;;5043757;28;20041;-83
2022/02/19 17:47:25;;;;;;;74.47;49.33;;;10.40;99.90;;;;;;5041336;28;20037;-83
2022/02/19 17:49:51;;;;;;;84.00;56.05;;;10.40;99.90;;;;;;5026064;28;20033;-84
2022/02/19 17:52:17;;;;;;;76.45;53.17;;;10.40;99.90;;;;;;5023840;28;20052;-84
2022/02/19 17:54:43;;;;;;;76.40;49.47;;;10.30;99.90;;;;;;5043823;28;20104;-86
2022/02/19 17:57:09;;;;;;;77.82;50.45;;;10.30;99.90;;;;;;5031078;28;20036;-86
2022/02/19 17:59:40;;;;;;;64.53;46.22;;;10.30;99.90;;;;;;5039597;28;20033;-86
2022/02/19 18:02:09;;;;;;;74.30;48.83;;;10.30;99.90;;;;;;5021117;28;20025;-86
2022/02/19 18:04:35;;;;;;;73.70;49.95;;;10.30;99.90;;;;;;5023180;28;20033;-81
2022/02/19 18:07:04;;;;;;;93.25;59.55;;;10.30;99.90;;;;;;5046039;28;20029;-86
2022/02/19 18:09:30;;;;;;;104.38;68.60;;;10.40;99.90;;;;;;5046403;28;20026;-86